Time;durP1;ratioP1;P1;durP2;ratioP2;P2;SDS_P1;SDS_P2;PMS_P1;PMS_P2;Temp;Humidity;BMP_temperature;BMP_pressure;BME280_temperature;BME280_humidity;BME280_pressure;Samples;Min_cycle;Max_cycle;Signal;HPM_P1;HPM_P2
2022/05/24 00:00:50;;;;;;;3.40;2.00;;;;;;;11.05;47.70;100210.41;117459;1186;23420;-47
2022/05/24 00:03:19;;;;;;;5.40;2.30;;;;;;;11.03;47.88;100210.28;117440;1186;22637;-49
2022/05/24 00:05:47;;;;;;;3.20;2.20;;;;;;;11.01;47.94;100210.30;117413;1185;22908;-54
2022/05/24 00:08:14;;;;;;;2.90;2.00;;;;;;;11.00;47.75;100216.30;117394;1185;23621;-48
2022/05/24 00:10:41;;;;;;;2.70;1.80;;;;;;;10.98;47.91;100220.21;117249;1186;21921;-48
2022/05/24 00:13:10;;;;;;;3.00;2.10;;;;;;;10.95;47.92;100222.00;117367;1183;23534;-49
2022/05/24 00:15:38;;;;;;;3.00;2.10;;;;;;;10.93;47.86;100225.00;117224;1186;21854;-47
2022/05/24 00:18:09;;;;;;;2.50;1.90;;;;;;;10.91;47.97;100227.52;117363;1186;23538;-55
2022/05/24 00:20:42;;;;;;;2.30;1.70;;;;;;;10.88;48.05;100224.56;117410;1185;24154;-55
2022/05/24 00:23:10;;;;;;;2.50;1.60;;;;;;;10.85;47.93;100218.64;117319;1183;21870;-47
2022/05/24 00:25:40;;;;;;;2.70;1.70;;;;;;;10.84;47.97;100216.89;117290;1186;22832;-49
2022/05/24 00:28:07;;;;;;;;;;;;;;;10.83;47.94;100215.50;117409;1185;23528;-47
2022/05/24 00:30:35;;;;;;;2.30;1.40;;;;;;;10.80;48.02;100213.83;117384;1186;21887;-47
2022/05/24 00:33:02;;;;;;;3.00;1.90;;;;;;;10.76;48.03;100218.97;117363;1183;23441;-56
2022/05/24 00:35:29;;;;;;;2.90;2.00;;;;;;;10.71;47.99;100219.20;117273;1185;24148;-56
2022/05/24 00:37:57;;;;;;;2.80;1.70;;;;;;;10.66;47.93;100221.39;117259;1185;22831;-55
2022/05/24 00:40:47;;;;;;;2.90;1.90;;;;;;;10.63;47.99;100217.40;117264;1186;23605;-47
2022/05/24 00:43:24;;;;;;;3.10;2.10;;;;;;;10.60;47.99;100214.64;117371;1185;22697;-55
2022/05/24 00:45:53;;;;;;;5.30;2.10;;;;;;;10.58;48.14;100217.48;117414;1185;22087;-47
2022/05/24 00:48:55;;;;;;;3.00;1.90;;;;;;;10.56;48.04;100220.33;117393;1185;21865;-47
2022/05/24 00:51:32;;;;;;;3.30;1.90;;;;;;;10.54;48.03;100222.29;117053;1185;22806;-56
2022/05/24 00:54:01;;;;;;;3.00;2.00;;;;;;;10.50;47.99;100221.10;117390;1185;22903;-48
2022/05/24 00:56:37;;;;;;;3.00;1.60;;;;;;;10.47;47.94;100217.64;117410;1186;23560;-47
2022/05/24 00:59:06;;;;;;;3.40;2.10;;;;;;;10.47;48.10;100218.17;117379;1186;22905;-47
2022/05/24 01:01:43;;;;;;;3.20;2.00;;;;;;;10.47;48.14;100216.94;117278;1186;22465;-47
2022/05/24 01:04:14;;;;;;;3.30;2.10;;;;;;;10.47;48.21;100217.98;117433;1186;23432;-52
2022/05/24 01:06:41;;;;;;;;;;;;;;;10.46;48.19;100216.77;117343;1189;23545;-47
2022/05/24 01:09:10;;;;;;;3.30;1.90;;;;;;;10.43;48.16;100219.98;117328;1186;23582;-47
2022/05/24 01:11:39;;;;;;;5.60;2.30;;;;;;;10.40;48.35;100219.83;117370;1186;23532;-55
2022/05/24 01:14:07;;;;;;;5.70;2.40;;;;;;;10.39;48.30;100221.42;117522;1189;24168;-55
2022/05/24 01:16:34;;;;;;;3.40;2.40;;;;;;;10.41;48.30;100225.45;117347;1183;23580;-48
2022/05/24 01:19:05;;;;;;;3.50;2.20;;;;;;;10.42;48.42;100225.25;117386;1182;24148;-47
2022/05/24 01:21:31;;;;;;;3.00;2.10;;;;;;;10.44;48.36;100229.09;117350;1186;23435;-47
2022/05/24 01:24:09;;;;;;;4.40;2.70;;;;;;;10.45;48.50;100230.98;117330;1186;21863;-55
2022/05/24 01:26:53;;;;;;;5.70;2.70;;;;;;;10.47;48.44;100233.95;117421;1185;23563;-55
2022/05/24 01:29:21;;;;;;;3.30;2.40;;;;;;;10.47;48.54;100231.85;117372;1186;21864;-47
2022/05/24 01:37:21;;;;;;;3.60;2.60;;;;;;;10.44;48.44;100231.02;117244;1188;21900;-55
2022/05/24 01:39:51;;;;;;;5.90;2.20;;;;;;;10.41;48.51;100231.92;117151;1186;23546;-55
2022/05/24 01:42:19;;;;;;;3.80;2.30;;;;;;;10.39;48.49;100228.25;117305;1186;22970;-47
2022/05/24 01:45:03;;;;;;;3.70;2.40;;;;;;;10.38;48.40;100231.41;117306;1185;21865;-54
2022/05/24 01:47:31;;;;;;;3.60;2.20;;;;;;;10.36;48.59;100233.36;117053;1188;22908;-47
2022/05/24 01:50:00;;;;;;;4.50;2.40;;;;;;;10.36;48.58;100230.93;117143;1189;23707;-55
2022/05/24 01:52:42;;;;;;;4.70;1.90;;;;;;;10.33;48.45;100227.80;117153;1189;21896;-55
2022/05/24 01:55:19;;;;;;;3.00;1.70;;;;;;;10.31;48.47;100225.91;116997;1188;22228;-55
2022/05/24 01:57:48;;;;;;;3.10;1.80;;;;;;;10.25;48.48;100232.45;117091;1191;23524;-47
2022/05/24 02:00:16;;;;;;;3.80;1.80;;;;;;;10.17;48.31;100237.14;117126;1186;23446;-47
2022/05/24 02:02:44;;;;;;;2.70;1.90;;;;;;;10.07;48.43;100234.44;117392;1183;23443;-47
2022/05/24 02:05:11;;;;;;;3.60;2.10;;;;;;;9.99;48.22;100237.69;117380;1186;22889;-47
2022/05/24 02:07:39;;;;;;;5.00;1.90;;;;;;;9.93;48.29;100237.25;117365;1186;22640;-55
2022/05/24 02:10:06;;;;;;;2.60;1.80;;;;;;;9.86;48.28;100239.79;117146;1186;22793;-47
2022/05/24 02:12:39;;;;;;;3.20;1.60;;;;;;;9.81;48.38;100242.64;117079;1189;22923;-48
2022/05/24 02:15:09;;;;;;;7.00;1.90;;;;;;;9.77;48.38;100244.42;117219;1186;22941;-55
2022/05/24 02:17:41;;;;;;;;;;;;;;;9.68;48.29;100252.77;117173;1188;21823;-47
2022/05/24 02:20:09;;;;;;;2.50;1.60;;;;;;;9.61;48.35;100258.27;117083;1188;23457;-46
2022/05/24 02:22:36;;;;;;;3.20;1.80;;;;;;;9.59;48.42;100256.02;117110;1186;21865;-47
2022/05/24 02:25:10;;;;;;;4.30;1.70;;;;;;;9.60;48.53;100254.95;117007;1189;24243;-47
2022/05/24 02:27:39;;;;;;;3.60;2.00;;;;;;;9.62;48.56;100258.27;116958;1186;23576;-47
2022/05/24 02:30:07;;;;;;;4.80;2.00;;;;;;;9.62;48.50;100260.89;117330;1186;23564;-47
2022/05/24 02:32:34;;;;;;;3.10;1.90;;;;;;;9.64;48.70;100261.74;117269;1182;23550;-47
2022/05/24 02:35:01;;;;;;;4.10;1.80;;;;;;;9.68;48.65;100260.48;117274;1186;23042;-55
2022/05/24 02:37:28;;;;;;;3.10;1.70;;;;;;;9.69;48.71;100261.70;117174;1186;23441;-55
2022/05/24 02:42:43;;;;;;;3.40;1.80;;;;;;;9.70;48.75;100262.92;117057;1187;21857;-55
2022/05/24 02:45:10;;;;;;;5.30;2.40;;;;;;;9.67;48.72;100266.80;117085;1182;22996;-55
2022/05/24 02:47:36;;;;;;;3.50;2.10;;;;;;;9.64;48.69;100266.65;117031;1187;24224;-47
2022/05/24 02:50:04;;;;;;;3.20;1.90;;;;;;;9.62;48.64;100267.90;117307;1186;22935;-48
2022/05/24 02:52:31;;;;;;;2.90;1.90;;;;;;;9.60;48.74;100268.61;117255;1186;23638;-47
2022/05/24 02:54:58;;;;;;;3.70;2.60;;;;;;;9.61;48.76;100271.06;117050;1189;22822;-50
2022/05/24 02:57:25;;;;;;;3.30;2.00;;;;;;;9.63;48.88;100274.73;117105;1187;22832;-55
2022/05/24 02:59:53;;;;;;;3.90;2.10;;;;;;;9.69;48.96;100272.20;117297;1182;23455;-47
2022/05/24 03:02:20;;;;;;;3.10;2.00;;;;;;;9.76;48.97;100275.80;117313;1186;23553;-47
2022/05/24 03:04:47;;;;;;;3.50;2.30;;;;;;;9.83;49.07;100275.21;117241;1187;22953;-55
2022/05/24 03:10:02;;;;;;;4.50;2.10;;;;;;;9.99;49.27;100265.21;117296;1185;22981;-55
2022/05/24 03:15:14;;;;;;;2.80;2.00;;;;;;;10.20;49.34;100270.40;117116;1186;21972;-47
2022/05/24 03:17:42;;;;;;;3.20;2.10;;;;;;;10.28;49.38;100270.48;117145;1186;23598;-55
2022/05/24 03:20:10;;;;;;;7.90;2.50;;;;;;;10.35;49.31;100271.09;117231;1189;21858;-47
2022/05/24 03:22:37;;;;;;;4.50;2.30;;;;;;;10.45;49.42;100271.52;117258;1188;21860;-48
2022/05/24 03:25:05;;;;;;;4.00;2.20;;;;;;;10.53;49.41;100270.89;117197;1186;22775;-47
2022/05/24 03:27:33;;;;;;;5.30;2.60;;;;;;;10.61;49.46;100270.08;117207;1189;21911;-50
2022/05/24 03:30:00;;;;;;;5.90;2.30;;;;;;;10.69;49.51;100272.05;117201;1186;22036;-55
2022/05/24 03:32:27;;;;;;;5.80;2.70;;;;;;;10.80;49.49;100276.47;117059;1183;24165;-55
2022/05/24 03:34:54;;;;;;;3.90;2.30;;;;;;;10.90;49.62;100272.98;117064;1186;22476;-56
2022/05/24 03:37:21;;;;;;;3.30;2.60;;;;;;;11.01;49.70;100273.67;116933;1186;23550;-47
2022/05/24 03:39:48;;;;;;;2.70;2.10;;;;;;;11.14;49.75;100271.02;117272;1186;22619;-47
2022/05/24 03:42:21;;;;;;;3.90;2.20;;;;;;;11.26;49.76;100268.02;117123;1189;22177;-48
2022/05/24 03:44:48;;;;;;;3.60;2.60;;;;;;;11.37;49.79;100265.73;117274;1183;22495;-48
2022/05/24 03:47:15;;;;;;;4.50;2.70;;;;;;;11.49;49.95;100261.13;117191;1184;21858;-56
2022/05/24 03:49:43;;;;;;;4.40;2.50;;;;;;;11.60;49.94;100258.45;117202;1183;23455;-48
2022/05/24 03:52:11;;;;;;;4.90;2.70;;;;;;;11.74;49.88;100259.95;117240;1180;23542;-48
2022/05/24 03:54:38;;;;;;;4.10;2.60;;;;;;;11.89;49.86;100260.73;117224;1185;23573;-48
2022/05/24 03:59:52;;;;;;;3.30;2.40;;;;;;;12.18;50.10;100261.58;117297;1186;21855;-55
2022/05/24 04:02:19;;;;;;;4.20;2.60;;;;;;;12.33;50.09;100261.98;117091;1189;23350;-56
2022/05/24 04:04:46;;;;;;;13.30;3.30;;;;;;;12.49;50.31;100263.05;117346;1183;22739;-49
2022/05/24 04:07:15;;;;;;;5.90;2.20;;;;;;;12.65;50.21;100258.46;117281;1185;21916;-55
2022/05/24 04:09:41;;;;;;;6.50;3.20;;;;;;;12.82;50.15;100261.77;117223;1183;23475;-54
2022/05/24 04:12:09;;;;;;;4.20;2.60;;;;;;;12.98;50.12;100261.39;117269;1185;22792;-49
2022/05/24 04:14:36;;;;;;;6.30;2.30;;;;;;;13.15;50.33;100258.87;117254;1186;22963;-50
2022/05/24 04:17:04;;;;;;;3.20;2.30;;;;;;;13.32;50.28;100257.55;117264;1186;23473;-49
2022/05/24 04:19:31;;;;;;;2.70;2.10;;;;;;;13.50;50.44;100255.38;117101;1188;23545;-50
2022/05/24 04:21:58;;;;;;;4.10;2.20;;;;;;;13.68;50.41;100258.26;117247;1183;23579;-51
2022/05/24 04:24:24;;;;;;;6.00;2.50;;;;;;;13.86;50.47;100253.88;117269;1186;23564;-50
2022/05/24 04:26:52;;;;;;;4.40;2.30;;;;;;;14.04;50.42;100252.66;117269;1183;23544;-55
2022/05/24 04:29:19;;;;;;;3.70;2.30;;;;;;;14.23;50.33;100251.40;117263;1186;22804;-52
2022/05/24 04:31:46;;;;;;;6.10;2.80;;;;;;;14.42;50.38;100249.79;117245;1186;23465;-56
2022/05/24 04:34:14;;;;;;;3.60;2.50;;;;;;;14.60;50.51;100249.05;117339;1182;22963;-55
2022/05/24 04:36:40;;;;;;;3.10;2.20;;;;;;;14.81;50.52;100251.64;117156;1188;22958;-55
2022/05/24 04:39:08;;;;;;;2.70;2.20;;;;;;;14.99;50.39;100253.35;117198;1189;23544;-55
2022/05/24 04:44:21;;;;;;;4.10;2.30;;;;;;;15.45;50.70;100252.20;117281;1185;23560;-56
2022/05/24 04:49:35;;;;;;;3.50;2.20;;;;;;;15.92;50.64;100251.76;117251;1183;22950;-51
2022/05/24 04:52:03;;;;;;;2.80;1.70;;;;;;;16.14;50.63;100254.87;117221;1183;24167;-54
2022/05/24 04:54:30;;;;;;;4.00;1.90;;;;;;;16.34;50.52;100255.38;117218;1186;22209;-55
2022/05/24 04:56:56;;;;;;;4.00;1.80;;;;;;;16.50;50.40;100256.52;117037;1188;23545;-52
2022/05/24 04:59:23;;;;;;;3.50;1.80;;;;;;;16.67;50.37;100257.46;117280;1186;24152;-51
2022/05/24 05:01:52;;;;;;;3.30;1.90;;;;;;;16.85;50.34;100255.67;117241;1186;23364;-55
2022/05/24 05:04:20;;;;;;;4.50;1.80;;;;;;;17.03;50.24;100256.94;117272;1182;22803;-55
2022/05/24 05:06:47;;;;;;;3.70;1.70;;;;;;;17.24;50.25;100251.48;117267;1186;23579;-52
2022/05/24 05:09:14;;;;;;;3.50;1.80;;;;;;;17.48;50.30;100249.23;117345;1180;22915;-55
2022/05/24 05:11:41;;;;;;;3.40;1.60;;;;;;;17.71;50.23;100250.89;117161;1185;23573;-55
2022/05/24 05:14:09;;;;;;;2.50;1.60;;;;;;;17.91;50.17;100248.23;117277;1187;21897;-53
2022/05/24 05:16:37;;;;;;;13.70;2.20;;;;;;;18.07;49.99;100249.69;117206;1186;23642;-55
2022/05/24 05:19:05;;;;;;;3.80;1.50;;;;;;;18.20;49.78;100250.64;117266;1186;22925;-52
2022/05/24 05:21:33;;;;;;;4.40;1.50;;;;;;;18.35;49.71;100249.46;117303;1186;23546;-56
2022/05/24 05:24:00;;;;;;;4.90;2.00;;;;;;;18.52;49.69;100250.27;117262;1186;21853;-54
2022/05/24 05:26:28;;;;;;;3.40;1.80;;;;;;;18.71;49.55;100253.45;117292;1185;21893;-56
2022/05/24 05:28:55;;;;;;;2.80;1.70;;;;;;;18.82;49.41;100256.27;117401;1186;23578;-51
2022/05/24 05:31:22;;;;;;;3.40;1.30;;;;;;;18.92;49.33;100256.89;117160;1186;23547;-55
2022/05/24 05:33:50;;;;;;;4.70;1.80;;;;;;;19.05;49.44;100256.81;117184;1187;21945;-56
2022/05/24 05:36:17;;;;;;;3.50;1.80;;;;;;;19.22;49.39;100257.58;117280;1185;23548;-50
2022/05/24 05:38:46;;;;;;;4.00;1.70;;;;;;;19.39;49.31;100257.27;117296;1186;21855;-57
2022/05/24 05:41:14;;;;;;;2.40;1.40;;;;;;;19.52;49.25;100257.30;117214;1186;23638;-56
2022/05/24 05:43:41;;;;;;;2.90;1.80;;;;;;;19.67;49.06;100261.69;117363;1186;22094;-56
2022/05/24 05:46:09;;;;;;;4.40;2.00;;;;;;;19.86;49.14;100267.46;117188;1188;21847;-56
2022/05/24 05:48:37;;;;;;;5.80;1.70;;;;;;;19.99;49.01;100266.98;117090;1189;22187;-56
2022/05/24 05:51:05;;;;;;;3.00;1.50;;;;;;;20.10;49.06;100267.29;117202;1188;21963;-50
2022/05/24 05:53:33;;;;;;;2.50;1.40;;;;;;;20.30;49.09;100269.59;117387;1185;21850;-56
2022/05/24 05:56:00;;;;;;;12.60;1.90;;;;;;;20.54;49.07;100272.05;117311;1186;21854;-55
2022/05/24 05:58:27;;;;;;;3.30;1.60;;;;;;;20.73;48.88;100272.77;117129;1186;23550;-56
2022/05/24 06:00:53;;;;;;;3.80;1.40;;;;;;;20.92;49.01;100271.17;117085;1187;23592;-51
2022/05/24 06:03:21;;;;;;;2.40;1.60;;;;;;;21.17;48.86;100272.97;117347;1181;21902;-51
2022/05/24 06:05:50;;;;;;;3.10;1.60;;;;;;;21.29;48.46;100269.21;117402;1184;21848;-56
2022/05/24 06:08:17;;;;;;;2.90;2.00;;;;;;;21.40;48.41;100267.90;117321;1186;21865;-56
2022/05/24 06:10:47;;;;;;;3.70;1.50;;;;;;;21.58;48.47;100266.08;117140;1188;21913;-55
2022/05/24 06:13:14;;;;;;;3.50;1.60;;;;;;;21.75;48.30;100268.69;117402;1186;22989;-51
2022/05/24 06:15:41;;;;;;;7.10;1.70;;;;;;;21.85;48.19;100266.30;117366;1186;22809;-56
2022/05/24 06:18:08;;;;;;;4.90;1.60;;;;;;;21.98;48.15;100266.40;117279;1181;23031;-51
2022/05/24 06:20:35;;;;;;;2.50;1.50;;;;;;;22.14;48.16;100263.95;117243;1183;22626;-56
2022/05/24 06:23:03;;;;;;;2.40;1.50;;;;;;;22.29;47.82;100263.42;117462;1185;22917;-56
2022/05/24 06:25:31;;;;;;;2.20;1.20;;;;;;;22.40;47.64;100266.27;117242;1182;23635;-56
2022/05/24 06:27:58;;;;;;;5.80;1.80;;;;;;;22.53;47.64;100264.05;117264;1186;23548;-55
2022/05/24 06:30:25;;;;;;;2.40;1.40;;;;;;;22.71;47.62;100263.98;117083;1187;22073;-51
2022/05/24 06:32:52;;;;;;;3.70;1.70;;;;;;;22.81;47.23;100263.86;117192;1187;22111;-56
2022/05/24 06:35:20;;;;;;;2.90;1.70;;;;;;;22.91;47.22;100267.69;117317;1186;22298;-56
2022/05/24 06:37:48;;;;;;;3.60;1.70;;;;;;;23.02;47.14;100272.33;117318;1186;23531;-56
2022/05/24 06:40:18;;;;;;;3.70;1.40;;;;;;;23.07;46.93;100272.70;117201;1188;24163;-53
2022/05/24 06:42:45;;;;;;;3.30;1.30;;;;;;;23.12;46.84;100275.95;117330;1185;22626;-56
2022/05/24 06:45:12;;;;;;;3.50;1.50;;;;;;;23.27;46.99;100272.70;117268;1188;23037;-52
2022/05/24 06:47:40;;;;;;;2.80;1.50;;;;;;;23.47;47.09;100272.96;117268;1186;22646;-52
2022/05/24 06:50:08;;;;;;;4.10;1.80;;;;;;;23.60;46.82;100274.73;117239;1186;23538;-56
2022/05/24 06:52:35;;;;;;;2.70;1.50;;;;;;;23.74;46.66;100274.35;117249;1186;23075;-56
2022/05/24 06:55:03;;;;;;;3.00;1.50;;;;;;;23.91;46.41;100276.05;117291;1186;23568;-52
2022/05/24 06:57:30;;;;;;;5.50;1.80;;;;;;;24.12;46.44;100276.38;117320;1186;21877;-57
2022/05/24 07:02:43;;;;;;;3.00;1.30;;;;;;;24.53;46.38;100278.48;117255;1185;23566;-52
2022/05/24 07:05:13;;;;;;;2.90;1.30;;;;;;;24.76;46.50;100279.34;117306;1185;23453;-53
2022/05/24 07:07:40;;;;;;;3.60;1.60;;;;;;;25.06;46.32;100280.25;117337;1180;24161;-57
2022/05/24 07:10:09;;;;;;;4.30;1.50;;;;;;;25.22;45.79;100280.30;117326;1185;22831;-57
2022/05/24 07:12:36;;;;;;;4.80;1.60;;;;;;;25.21;45.48;100282.66;117360;1186;21841;-58
2022/05/24 07:15:03;;;;;;;3.20;1.60;;;;;;;25.19;45.22;100282.33;117127;1183;24762;-57
2022/05/24 07:17:31;;;;;;;4.90;1.50;;;;;;;25.18;45.08;100282.95;117268;1186;21873;-57
2022/05/24 07:19:58;;;;;;;5.40;2.10;;;;;;;25.26;45.21;100281.80;117250;1185;21860;-56
2022/05/24 07:22:25;;;;;;;4.50;1.50;;;;;;;25.38;45.18;100286.06;117398;1185;23544;-53
2022/05/24 07:24:52;;;;;;;5.80;1.90;;;;;;;25.47;44.90;100283.98;116940;1189;22726;-54
2022/05/24 07:27:20;;;;;;;9.00;3.50;;;;;;;25.54;44.70;100285.64;117049;1189;22946;-55
2022/05/24 07:29:48;;;;;;;4.10;1.80;;;;;;;25.64;44.74;100284.83;117082;1188;24278;-57
2022/05/24 07:32:15;;;;;;;6.20;2.10;;;;;;;25.87;44.82;100278.77;117416;1185;21976;-58
2022/05/24 07:34:43;;;;;;;4.50;1.80;;;;;;;26.00;44.44;100278.65;117333;1186;22617;-54
2022/05/24 07:37:13;;;;;;;3.60;1.50;;;;;;;26.08;44.42;100277.87;117374;1185;21891;-53
2022/05/24 07:39:41;;;;;;;5.30;1.80;;;;;;;26.26;44.26;100280.73;117305;1184;21847;-58
2022/05/24 07:47:41;;;;;;;2.50;1.50;;;;;;;26.50;43.92;100279.01;117209;1186;21858;-57
2022/05/24 07:50:08;;;;;;;3.10;1.40;;;;;;;26.88;44.09;100277.58;117304;1182;22796;-57
2022/05/24 07:52:36;;;;;;;3.50;1.50;;;;;;;27.28;44.11;100277.72;117126;1186;21861;-54
2022/05/24 07:55:04;;;;;;;3.80;1.80;;;;;;;27.57;43.81;100270.80;117066;1182;21960;-54
2022/05/24 07:57:31;;;;;;;2.80;1.40;;;;;;;27.82;43.62;100269.58;117265;1186;21855;-54
2022/05/24 08:00:05;;;;;;;6.90;1.50;;;;;;;28.12;43.50;100269.14;117165;1186;23540;-56
2022/05/24 08:02:32;;;;;;;3.30;1.50;;;;;;;28.39;43.02;100267.70;117084;1187;21929;-57
2022/05/24 08:05:00;;;;;;;3.60;1.90;;;;;;;28.34;42.55;100267.57;117832;1186;24162;-56
2022/05/24 08:07:28;;;;;;;3.60;1.90;;;;;;;28.13;42.36;100269.42;117911;1182;21856;-57
2022/05/24 08:09:55;;;;;;;4.30;1.50;;;;;;;28.06;42.11;100271.27;117861;1186;21854;-55
2022/05/24 08:12:22;;;;;;;2.60;1.50;;;;;;;28.00;42.02;100276.05;117485;1187;22029;-55
2022/05/24 08:14:50;;;;;;;3.20;1.40;;;;;;;27.93;42.17;100273.64;117842;1186;24839;-54
2022/05/24 08:17:18;;;;;;;1.80;1.20;;;;;;;27.96;41.85;100270.17;117832;1185;23542;-54
2022/05/24 08:19:45;;;;;;;7.50;1.50;;;;;;;27.89;41.28;100274.71;117788;1187;21837;-55
2022/05/24 08:22:12;;;;;;;2.50;1.50;;;;;;;27.75;41.12;100270.69;117631;1186;21977;-55
2022/05/24 08:24:39;;;;;;;3.00;1.60;;;;;;;27.81;41.37;100272.66;117126;1188;23205;-54
2022/05/24 08:27:08;;;;;;;2.60;1.70;;;;;;;28.07;41.49;100272.96;117200;1182;23544;-54
2022/05/24 08:29:36;;;;;;;3.90;1.50;;;;;;;28.32;41.38;100272.77;117257;1182;22724;-56
2022/05/24 08:32:04;;;;;;;4.60;1.40;;;;;;;28.47;41.28;100275.77;117314;1185;22610;-54
2022/05/24 08:34:32;;;;;;;3.80;1.90;;;;;;;28.47;41.10;100277.74;117256;1182;24144;-56
2022/05/24 08:36:59;;;;;;;5.30;1.70;;;;;;;28.35;40.65;100279.33;117192;1186;23557;-55
2022/05/24 08:39:27;;;;;;;2.30;1.60;;;;;;;28.08;40.32;100280.96;117321;1185;23548;-55
2022/05/24 08:42:06;;;;;;;3.90;1.50;;;;;;;27.67;40.19;100280.70;117140;1185;24226;-57
2022/05/24 08:50:20;;;;;;;4.60;1.50;;;;;;;26.11;39.62;100290.89;117244;1186;21870;-55
2022/05/24 08:52:50;;;;;;;3.40;1.30;;;;;;;25.81;39.78;100298.45;117067;1183;23738;-55
2022/05/24 08:55:17;;;;;;;4.80;1.70;;;;;;;25.57;39.63;100300.81;117302;1183;22910;-56
2022/05/24 08:57:47;;;;;;;2.60;1.50;;;;;;;25.31;39.43;100299.17;117253;1182;24152;-56
2022/05/24 09:00:20;;;;;;;2.80;1.50;;;;;;;25.13;39.39;100292.64;117187;1183;22161;-55
2022/05/24 09:02:47;;;;;;;3.90;1.60;;;;;;;24.99;39.42;100290.95;117165;1184;23461;-56
2022/05/24 09:05:20;;;;;;;4.00;1.70;;;;;;;24.87;39.44;100294.17;117293;1182;21862;-57
2022/05/24 09:08:19;;;;;;;3.70;2.20;;;;;;;24.76;39.62;100298.54;117260;1185;21885;-57
2022/05/24 09:11:05;;;;;;;6.60;1.70;;;;;;;24.64;39.52;100299.75;117281;1182;23372;-55
2022/05/24 09:14:00;;;;;;;6.20;2.00;;;;;;;24.53;39.33;100296.41;117279;1186;22815;-55
2022/05/24 09:16:34;;;;;;;3.40;1.50;;;;;;;24.43;39.17;100297.17;117205;1186;21896;-55
2022/05/24 09:19:12;;;;;;;5.80;2.00;;;;;;;24.36;39.11;100297.85;117342;1185;21849;-55
2022/05/24 09:21:42;;;;;;;3.60;1.60;;;;;;;24.31;39.07;100298.70;117237;1186;22944;-55
2022/05/24 09:24:25;;;;;;;2.80;1.60;;;;;;;24.31;39.40;100297.42;117209;1187;21852;-57
2022/05/24 09:27:02;;;;;;;4.50;1.60;;;;;;;24.50;39.55;100295.71;117344;1183;21868;-57
2022/05/24 09:29:31;;;;;;;4.00;1.50;;;;;;;24.71;39.43;100299.08;117392;1183;23624;-58
2022/05/24 09:32:03;;;;;;;2.40;1.00;;;;;;;24.81;39.38;100297.30;117253;1185;21857;-55
2022/05/24 09:34:31;;;;;;;3.00;1.40;;;;;;;24.85;39.15;100296.80;117235;1186;22918;-58
2022/05/24 09:37:05;;;;;;;3.70;1.70;;;;;;;24.90;39.05;100295.22;117330;1186;23464;-58
2022/05/24 09:39:35;;;;;;;2.90;1.40;;;;;;;24.99;39.11;100292.59;117257;1186;21831;-55
2022/05/24 09:42:08;;;;;;;4.30;1.50;;;;;;;25.15;39.28;100289.02;117785;1186;21908;-52
2022/05/24 09:45:10;;;;;;;3.60;1.20;;;;;;;25.52;39.52;100287.38;117290;1183;23468;-55
2022/05/24 09:47:43;;;;;;;4.00;1.40;;;;;;;26.16;39.71;100281.89;117159;1186;21855;-58
2022/05/24 09:50:20;;;;;;;4.10;1.90;;;;;;;26.84;39.83;100284.37;117064;1182;21852;-55
2022/05/24 09:53:03;;;;;;;4.50;1.80;;;;;;;27.46;39.64;100282.16;117147;1185;21871;-58
2022/05/24 09:55:36;;;;;;;1.50;1.20;;;;;;;28.00;39.25;100283.67;117246;1186;22909;-59
2022/05/24 09:58:34;;;;;;;3.80;1.50;;;;;;;28.24;38.97;100276.03;117192;1182;22928;-56
2022/05/24 10:01:01;;;;;;;7.10;1.80;;;;;;;28.57;38.88;100276.17;117008;1182;22808;-53
2022/05/24 10:03:29;;;;;;;7.00;1.50;;;;;;;28.84;38.65;100276.14;117132;1185;23457;-54
2022/05/24 10:06:07;;;;;;;4.50;1.80;;;;;;;28.95;38.23;100275.27;117279;1182;23682;-57
2022/05/24 10:08:46;;;;;;;3.50;1.50;;;;;;;29.13;38.45;100270.02;117315;1186;23458;-53
2022/05/24 10:11:35;;;;;;;2.70;1.50;;;;;;;29.55;38.61;100269.25;117313;1183;23371;-55
2022/05/24 10:14:04;;;;;;;2.10;1.40;;;;;;;29.90;38.31;100263.44;117220;1186;21858;-57
2022/05/24 10:16:35;;;;;;;3.80;1.40;;;;;;;29.91;37.91;100263.86;117214;1184;22702;-54
2022/05/24 10:19:28;;;;;;;3.10;1.50;;;;;;;29.64;37.25;100268.55;117185;1186;22004;-54
2022/05/24 10:22:02;;;;;;;3.30;1.40;;;;;;;29.16;37.05;100266.15;117068;1184;22621;-57
2022/05/24 10:24:33;;;;;;;2.60;1.60;;;;;;;28.78;36.84;100265.23;117273;1185;24494;-54
2022/05/24 10:27:03;;;;;;;3.60;1.60;;;;;;;28.50;36.78;100262.14;117267;1184;23573;-56
2022/05/24 10:29:52;;;;;;;3.70;1.70;;;;;;;28.33;36.80;100260.27;117076;1187;22844;-56
2022/05/24 10:38:22;;;;;;;4.20;1.80;;;;;;;28.05;36.63;100258.58;118018;1186;22919;-57
2022/05/24 10:41:40;;;;;;;4.70;2.00;;;;;;;27.70;36.36;100260.80;117953;1185;22805;-54
2022/05/24 10:44:14;;;;;;;4.40;1.60;;;;;;;27.24;36.14;100258.07;116894;1180;24191;-54
2022/05/24 10:46:44;;;;;;;6.20;1.50;;;;;;;26.98;36.23;100264.32;117114;1187;22106;-57
2022/05/24 10:49:18;;;;;;;3.50;1.80;;;;;;;26.82;36.15;100259.15;117270;1183;21880;-54
2022/05/24 10:51:53;;;;;;;10.60;5.20;;;;;;;26.63;36.08;100259.84;117195;1182;23500;-54
2022/05/24 10:54:41;;;;;;;5.70;2.80;;;;;;;26.42;36.12;100260.05;117413;1186;21855;-53
2022/05/24 10:57:21;;;;;;;3.60;2.10;;;;;;;26.25;36.05;100256.19;117157;1187;21851;-53
2022/05/24 11:00:03;;;;;;;3.00;1.40;;;;;;;26.14;36.11;100256.16;117103;1183;23525;-54
2022/05/24 11:02:37;;;;;;;3.60;2.00;;;;;;;26.09;36.09;100258.19;117253;1185;22905;-52
2022/05/24 11:05:26;;;;;;;7.90;2.20;;;;;;;26.04;36.04;100257.48;117322;1176;23703;-56
2022/05/24 11:08:10;;;;;;;7.40;2.10;;;;;;;26.15;36.30;100249.27;117334;1182;21993;-57
2022/05/24 11:10:39;;;;;;;8.70;1.70;;;;;;;26.49;36.58;100248.84;117078;1186;24152;-57
2022/05/24 11:13:12;;;;;;;3.40;1.30;;;;;;;26.94;36.61;100243.42;117165;1187;21993;-57
2022/05/24 11:15:52;;;;;;;3.10;1.40;;;;;;;27.63;36.92;100245.76;117225;1186;21852;-57
2022/05/24 11:18:24;;;;;;;1.90;1.20;;;;;;;28.39;37.01;100242.20;117191;1188;22611;-57
2022/05/24 11:20:59;;;;;;;5.60;1.50;;;;;;;29.05;36.72;100234.63;117293;1185;22828;-57
2022/05/24 11:23:29;;;;;;;3.00;1.50;;;;;;;29.50;36.26;100230.55;117232;1185;21856;-57
2022/05/24 11:26:11;;;;;;;4.50;1.10;;;;;;;29.59;35.66;100231.83;117315;1182;22948;-58
2022/05/24 11:28:43;;;;;;;4.50;1.70;;;;;;;29.46;35.20;100228.34;117199;1181;22956;-54
2022/05/24 11:31:28;;;;;;;3.10;1.30;;;;;;;29.21;35.26;100228.65;117328;1185;22916;-54
2022/05/24 11:33:57;;;;;;;3.00;1.20;;;;;;;29.04;35.16;100234.73;117242;1182;21853;-54
2022/05/24 11:37:01;;;;;;;4.20;1.70;;;;;;;28.81;34.92;100233.23;117066;1183;23589;-57
2022/05/24 11:39:30;;;;;;;5.20;1.80;;;;;;;28.46;34.70;100230.90;117398;1185;21845;-57
2022/05/24 11:42:21;;;;;;;5.10;1.50;;;;;;;28.25;34.67;100230.65;117430;1182;23470;-53
2022/05/24 11:44:49;;;;;;;2.90;1.60;;;;;;;28.01;34.62;100230.02;117276;1183;21853;-54
2022/05/24 11:47:34;;;;;;;2.70;1.40;;;;;;;27.86;34.69;100231.34;117121;1187;21886;-54
2022/05/24 11:50:01;;;;;;;3.00;1.40;;;;;;;27.75;34.59;100230.08;117036;1184;22922;-54
2022/05/24 11:53:00;;;;;;;3.60;1.30;;;;;;;27.65;34.54;100224.52;117186;1180;22825;-57
2022/05/24 11:55:47;;;;;;;5.70;1.90;;;;;;;27.77;34.66;100224.35;117322;1185;21935;-57
2022/05/24 11:58:20;;;;;;;3.40;1.20;;;;;;;28.28;35.17;100222.29;117265;1186;21877;-54
2022/05/24 12:01:15;;;;;;;7.90;1.60;;;;;;;29.00;35.12;100217.20;117297;1183;23676;-53
2022/05/24 12:09:58;;;;;;;1.80;1.10;;;;;;;29.51;34.20;100204.94;117259;1184;22613;-54
2022/05/24 12:12:48;;;;;;;3.30;1.30;;;;;;;29.59;33.67;100205.03;117218;1186;22909;-57
2022/05/24 12:15:16;;;;;;;3.10;1.30;;;;;;;29.55;33.73;100202.91;117261;1182;23678;-57
2022/05/24 12:17:44;;;;;;;6.70;1.90;;;;;;;29.36;33.43;100203.39;117068;1182;22910;-57
2022/05/24 12:20:33;;;;;;;4.70;1.70;;;;;;;29.29;33.52;100196.83;117258;1186;23544;-56
2022/05/24 12:23:02;;;;;;;3.70;1.40;;;;;;;29.38;33.62;100193.31;117185;1182;21864;-54
2022/05/24 12:25:55;;;;;;;2.30;1.20;;;;;;;29.62;33.70;100188.33;117295;1182;21901;-54